Time;durP1;ratioP1;P1;durP2;ratioP2;P2;SDS_P1;SDS_P2;PMS_P1;PMS_P2;Temp;Humidity;BMP_temperature;BMP_pressure;BME280_temperature;BME280_humidity;BME280_pressure;Samples;Min_cycle;Max_cycle;Signal;HPM_P1;HPM_P2
2022/12/09 00:05:00;;;;;;;39.10;13.90;;;;;;;;;;10490098;28;20033;-74
2022/12/09 00:10:03;;;;;;;37.43;14.03;;;;;;;;;;10512045;28;20431;-76
2022/12/09 00:15:10;;;;;;;37.73;13.57;;;;;;;;;;10496618;28;20338;-76
2022/12/09 00:20:14;;;;;;;38.30;13.00;;;;;;;;;;10514041;28;20045;-76
2022/12/09 00:25:17;;;;;;;29.40;11.90;;;;;;;;;;10494030;28;20464;-75
2022/12/09 00:30:21;;;;;;;41.73;14.37;;;;;;;;;;10502255;28;20044;-75
2022/12/09 00:35:29;;;;;;;35.77;13.77;;;;;;;;;;10496440;28;20511;-75
2022/12/09 00:40:33;;;;;;;40.10;13.73;;;;;;;;;;10494645;28;20136;-75
2022/12/09 00:45:37;;;;;;;34.63;11.03;;;;;;;;;;10514546;28;20051;-76
2022/12/09 00:50:40;;;;;;;31.43;12.10;;;;;;;;;;10513890;28;20050;-75
2022/12/09 00:55:43;;;;;;;28.30;10.20;;;;;;;;;;10514353;28;20040;-77
2022/12/09 01:00:48;;;;;;;22.87;7.73;;;;;;;;;;10496530;28;20580;-76
2022/12/09 01:05:52;;;;;;;;;;;;;;;;;;10512826;28;20040;-75
2022/12/09 01:10:54;;;;;;;16.17;7.60;;;;;;;;;;10511447;28;19930;-75
2022/12/09 01:15:59;;;;;;;11.37;4.23;;;;;;;;;;10493118;28;20044;-77
2022/12/09 01:21:05;;;;;;;16.63;6.30;;;;;;;;;;10516850;28;20035;-76
2022/12/09 01:26:09;;;;;;;19.38;7.05;;;;;;;;;;10518578;28;20128;-77
2022/12/09 01:31:21;;;;;;;16.67;6.30;;;;;;;;;;10514038;28;20076;-78
2022/12/09 01:36:26;;;;;;;26.53;7.63;;;;;;;;;;10509744;28;21309;-76
2022/12/09 01:41:29;;;;;;;22.75;8.68;;;;;;;;;;10510961;28;20548;-75
2022/12/09 01:46:35;;;;;;;15.00;5.97;;;;;;;;;;10470919;28;20044;-76
2022/12/09 01:51:39;;;;;;;26.03;9.47;;;;;;;;;;10513794;28;20417;-76
2022/12/09 01:56:44;;;;;;;22.60;7.32;;;;;;;;;;10505868;28;20128;-77
2022/12/09 02:01:50;;;;;;;18.57;6.43;;;;;;;;;;10493908;28;20044;-76
2022/12/09 02:06:55;;;;;;;16.27;6.50;;;;;;;;;;10509177;28;20032;-75
2022/12/09 02:12:17;;;;;;;22.15;9.30;;;;;;;;;;10502999;28;20341;-76
2022/12/09 02:17:25;;;;;;;13.37;5.77;;;;;;;;;;10509630;28;20051;-76
2022/12/09 02:22:30;;;;;;;12.57;5.37;;;;;;;;;;10506942;28;20550;-76
2022/12/09 02:27:36;;;;;;;11.30;5.80;;;;;;;;;;10475814;28;20032;-76
2022/12/09 02:33:07;;;;;;;13.33;6.60;;;;;;;;;;10491943;28;20059;-75
2022/12/09 02:38:13;;;;;;;10.10;4.63;;;;;;;;;;10507201;28;20477;-76
2022/12/09 02:43:20;;;;;;;10.00;4.87;;;;;;;;;;10506611;28;20052;-75
2022/12/09 02:48:25;;;;;;;12.87;5.30;;;;;;;;;;10512686;28;20040;-75
2022/12/09 02:53:30;;;;;;;14.70;4.47;;;;;;;;;;10504180;28;20036;-74
2022/12/09 02:58:34;;;;;;;14.00;4.43;;;;;;;;;;10523886;28;20044;-75
2022/12/09 03:03:37;;;;;;;13.10;5.05;;;;;;;;;;10522704;28;20040;-75
2022/12/09 03:08:46;;;;;;;18.37;5.70;;;;;;;;;;10512891;28;20127;-74
2022/12/09 03:13:55;;;;;;;13.93;5.10;;;;;;;;;;10502597;28;20298;-76
2022/12/09 03:19:01;;;;;;;12.23;4.63;;;;;;;;;;10514086;28;20161;-75
2022/12/09 03:24:11;;;;;;;14.57;4.93;;;;;;;;;;10501062;28;20040;-75
2022/12/09 03:29:20;;;;;;;18.20;6.53;;;;;;;;;;10501970;28;20032;-73
2022/12/09 03:34:25;;;;;;;20.27;6.17;;;;;;;;;;10509466;28;20110;-75
2022/12/09 03:39:32;;;;;;;12.77;4.90;;;;;;;;;;10502701;28;20042;-76
2022/12/09 03:44:37;;;;;;;19.20;6.97;;;;;;;;;;10513663;28;20044;-76
2022/12/09 03:49:41;;;;;;;12.07;5.37;;;;;;;;;;10517077;28;20477;-76
2022/12/09 03:54:47;;;;;;;10.77;3.93;;;;;;;;;;10525297;28;20048;-75
2022/12/09 03:59:56;;;;;;;10.23;5.10;;;;;;;;;;10509030;28;20125;-76
2022/12/09 04:05:01;;;;;;;12.20;5.20;;;;;;;;;;10519584;28;20123;-75
2022/12/09 04:10:10;;;;;;;15.73;5.13;;;;;;;;;;10514274;28;20101;-75
2022/12/09 04:15:14;;;;;;;12.23;4.57;;;;;;;;;;10494194;28;20412;-75
2022/12/09 04:20:17;;;;;;;3.30;1.97;;;;;;;;;;10495734;28;20140;-75
2022/12/09 04:25:23;;;;;;;;;;;;;;;;;;10520318;28;20044;-75
2022/12/09 04:30:27;;;;;;;9.73;3.60;;;;;;;;;;10532425;28;19927;-76
2022/12/09 04:35:31;;;;;;;13.90;5.00;;;;;;;;;;10525023;28;20048;-76
2022/12/09 04:40:34;;;;;;;11.40;3.57;;;;;;;;;;10491326;28;20040;-74
2022/12/09 04:45:39;;;;;;;10.47;3.97;;;;;;;;;;10493592;28;20298;-74
2022/12/09 04:50:43;;;;;;;7.63;3.80;;;;;;;;;;10513395;28;20056;-76
2022/12/09 04:55:46;;;;;;;8.13;4.33;;;;;;;;;;10505653;28;20036;-76
2022/12/09 05:00:51;;;;;;;12.10;3.90;;;;;;;;;;10512813;28;20039;-75
2022/12/09 05:05:55;;;;;;;12.40;4.77;;;;;;;;;;10517854;28;20046;-76
2022/12/09 05:10:58;;;;;;;;;;;;;;;;;;10506491;28;20036;-75
2022/12/09 05:16:08;;;;;;;10.37;2.93;;;;;;;;;;10507247;28;20025;-74
2022/12/09 05:21:20;;;;;;;19.13;6.40;;;;;;;;;;10507499;28;20036;-75
2022/12/09 05:26:24;;;;;;;15.13;6.37;;;;;;;;;;10489751;28;20345;-75
2022/12/09 05:31:29;;;;;;;19.05;8.13;;;;;;;;;;10510388;28;20067;-74
2022/12/09 05:36:33;;;;;;;20.57;7.90;;;;;;;;;;10489600;28;20040;-75
2022/12/09 05:41:42;;;;;;;13.40;5.53;;;;;;;;;;10490984;28;20040;-74
2022/12/09 05:46:47;;;;;;;11.13;5.43;;;;;;;;;;10510502;28;20063;-75
2022/12/09 05:51:50;;;;;;;16.73;6.00;;;;;;;;;;10514450;28;20036;-75
2022/12/09 05:56:55;;;;;;;14.20;5.27;;;;;;;;;;10505936;28;20040;-75
2022/12/09 06:02:01;;;;;;;18.27;5.47;;;;;;;;;;10476697;28;20548;-74
2022/12/09 06:07:12;;;;;;;11.30;5.40;;;;;;;;;;10514272;28;20046;-75
2022/12/09 06:12:15;;;;;;;17.23;6.15;;;;;;;;;;10487238;28;20482;-76
2022/12/09 06:17:20;;;;;;;10.23;4.67;;;;;;;;;;10488901;28;20052;-75
2022/12/09 06:22:23;;;;;;;12.07;5.40;;;;;;;;;;10514994;28;20047;-75
2022/12/09 06:27:27;;;;;;;15.03;6.03;;;;;;;;;;10500819;28;20060;-77
2022/12/09 06:32:32;;;;;;;25.17;7.55;;;;;;;;;;10502429;28;20813;-77
2022/12/09 06:37:35;;;;;;;14.70;5.83;;;;;;;;;;10502443;28;20492;-75
2022/12/09 06:42:40;;;;;;;14.40;6.43;;;;;;;;;;10516846;28;20063;-74
2022/12/09 06:47:44;;;;;;;9.83;4.20;;;;;;;;;;10524340;28;20433;-75
2022/12/09 06:52:48;;;;;;;10.43;4.63;;;;;;;;;;10517185;28;20436;-77
2022/12/09 06:57:51;;;;;;;;;;;;;;;;;;10507169;28;21688;-74
2022/12/09 07:02:55;;;;;;;16.97;5.87;;;;;;;;;;10509859;28;20301;-74
2022/12/09 07:07:59;;;;;;;13.80;4.60;;;;;;;;;;10516936;28;20451;-75
2022/12/09 07:13:02;;;;;;;13.38;5.25;;;;;;;;;;10494121;28;20596;-76
2022/12/09 07:18:08;;;;;;;6.57;2.97;;;;;;;;;;10513861;28;20032;-75
2022/12/09 07:23:13;;;;;;;13.23;5.17;;;;;;;;;;10499880;28;20052;-74
2022/12/09 07:28:15;;;;;;;;;;;;;;;;;;10503526;28;20176;-75
2022/12/09 07:33:21;;;;;;;10.27;4.67;;;;;;;;;;10516560;28;19924;-76
2022/12/09 07:38:25;;;;;;;25.93;6.70;;;;;;;;;;10514062;28;20036;-75
2022/12/09 07:43:28;;;;;;;15.88;6.47;;;;;;;;;;10530468;28;20036;-74
2022/12/09 07:48:33;;;;;;;22.67;8.57;;;;;;;;;;10515164;28;20101;-75
2022/12/09 07:53:37;;;;;;;18.30;7.70;;;;;;;;;;10516671;28;20049;-75
2022/12/09 07:58:41;;;;;;;19.43;6.17;;;;;;;;;;10507123;28;20489;-75
2022/12/09 08:03:46;;;;;;;30.90;9.73;;;;;;;;;;10518140;28;20123;-75
2022/12/09 08:08:51;;;;;;;26.73;9.00;;;;;;;;;;10508970;28;20124;-75
2022/12/09 08:13:55;;;;;;;18.70;6.93;;;;;;;;;;10513711;28;20124;-75
2022/12/09 08:19:01;;;;;;;32.20;8.40;;;;;;;;;;10489722;28;20083;-75
2022/12/09 08:24:06;;;;;;;24.73;9.00;;;;;;;;;;10509240;28;20411;-75
2022/12/09 08:29:10;;;;;;;14.27;5.40;;;;;;;;;;10501445;28;21657;-75
2022/12/09 08:34:16;;;;;;;18.67;7.03;;;;;;;;;;10522374;28;20089;-77
2022/12/09 08:39:19;;;;;;;27.27;9.50;;;;;;;;;;10512961;28;20465;-75
2022/12/09 08:44:23;;;;;;;23.77;8.73;;;;;;;;;;10511741;28;20044;-75
2022/12/09 08:49:28;;;;;;;22.23;7.20;;;;;;;;;;10513945;28;20044;-74
2022/12/09 08:54:31;;;;;;;22.17;7.17;;;;;;;;;;10514028;28;20052;-74
2022/12/09 08:59:35;;;;;;;19.90;7.63;;;;;;;;;;10511343;28;20044;-77
2022/12/09 09:04:48;;;;;;;23.83;7.95;;;;;;;;;;10514197;28;21769;-76
2022/12/09 09:09:52;;;;;;;22.40;7.70;;;;;;;;;;10501531;28;20036;-75
2022/12/09 09:14:55;;;;;;;18.37;7.77;;;;;;;;;;10506487;28;20036;-75
2022/12/09 09:20:00;;;;;;;25.90;9.33;;;;;;;;;;10505191;28;20039;-75
2022/12/09 09:25:04;;;;;;;25.92;8.38;;;;;;;;;;10493372;28;20138;-76
2022/12/09 09:30:09;;;;;;;22.90;8.13;;;;;;;;;;10492936;28;20088;-75
2022/12/09 09:35:14;;;;;;;27.60;8.30;;;;;;;;;;10504303;28;20044;-74
2022/12/09 09:40:19;;;;;;;12.53;5.17;;;;;;;;;;10510763;28;20032;-75
2022/12/09 09:45:23;;;;;;;28.80;9.50;;;;;;;;;;10501878;28;20048;-76
2022/12/09 09:50:31;;;;;;;30.43;10.93;;;;;;;;;;10514345;28;20119;-75
2022/12/09 09:55:35;;;;;;;27.02;8.15;;;;;;;;;;10506131;28;20068;-76
2022/12/09 10:00:43;;;;;;;21.65;6.72;;;;;;;;;;10522818;28;20036;-75
2022/12/09 10:05:49;;;;;;;21.73;7.90;;;;;;;;;;10506934;28;20040;-75
2022/12/09 10:10:57;;;;;;;29.27;9.87;;;;;;;;;;10499509;28;20552;-75
2022/12/09 10:16:08;;;;;;;20.27;7.10;;;;;;;;;;10509388;28;20074;-76
2022/12/09 10:21:17;;;;;;;25.73;9.25;;;;;;;;;;10507345;28;20314;-75
2022/12/09 10:26:22;;;;;;;28.50;9.07;;;;;;;;;;10506154;28;20504;-74
2022/12/09 10:31:27;;;;;;;28.00;8.33;;;;;;;;;;10509863;28;20060;-74
2022/12/09 10:36:32;;;;;;;25.87;6.93;;;;;;;;;;10514440;28;20138;-75
2022/12/09 10:47:04;;;;;;;18.80;6.57;;;;;;;;;;10508280;28;20043;-74
2022/12/09 10:52:09;;;;;;;11.25;5.03;;;;;;;;;;10500623;28;20297;-75
2022/12/09 10:57:23;;;;;;;23.03;7.27;;;;;;;;;;10514860;28;20040;-76
2022/12/09 11:02:27;;;;;;;30.77;10.30;;;;;;;;;;10511125;28;20414;-75
2022/12/09 11:07:32;;;;;;;25.05;8.10;;;;;;;;;;10516475;28;20094;-77
2022/12/09 11:12:38;;;;;;;19.97;6.63;;;;;;;;;;10513647;28;20047;-75
2022/12/09 11:17:54;;;;;;;28.58;8.55;;;;;;;;;;10508470;28;20040;-74
2022/12/09 11:23:01;;;;;;;21.80;7.60;;;;;;;;;;10515934;28;20397;-75
2022/12/09 11:28:06;;;;;;;24.67;7.47;;;;;;;;;;10493028;28;20044;-75
2022/12/09 11:33:19;;;;;;;20.70;6.85;;;;;;;;;;10519454;28;20148;-75
2022/12/09 11:38:29;;;;;;;14.20;5.50;;;;;;;;;;10511142;28;20320;-74
2022/12/09 11:43:35;;;;;;;10.25;3.58;;;;;;;;;;10493566;28;20048;-75
2022/12/09 11:48:39;;;;;;;15.55;6.68;;;;;;;;;;10502277;28;20064;-74
2022/12/09 11:53:46;;;;;;;21.50;8.57;;;;;;;;;;10516099;28;20072;-74
2022/12/09 11:58:54;;;;;;;25.33;8.02;;;;;;;;;;10515547;28;20493;-75
2022/12/09 12:04:00;;;;;;;20.23;7.32;;;;;;;;;;10496075;28;20097;-75
2022/12/09 12:09:07;;;;;;;20.70;6.70;;;;;;;;;;10513729;28;20136;-75
2022/12/09 12:14:13;;;;;;;18.52;7.00;;;;;;;;;;10515713;28;20053;-76
2022/12/09 12:19:25;;;;;;;18.10;7.23;;;;;;;;;;10486466;28;20047;-75
2022/12/09 12:24:39;;;;;;;15.52;5.15;;;;;;;;;;10516403;28;20059;-75
2022/12/09 12:29:47;;;;;;;16.00;5.63;;;;;;;;;;10509007;28;20465;-75
2022/12/09 12:34:56;;;;;;;19.65;6.95;;;;;;;;;;10516368;28;20069;-74
2022/12/09 12:40:05;;;;;;;22.35;7.63;;;;;;;;;;10522247;28;20045;-75
2022/12/09 12:50:47;;;;;;;27.92;8.98;;;;;;;;;;10513931;28;20134;-75
2022/12/09 12:55:54;;;;;;;27.92;10.05;;;;;;;;;;10497220;28;20484;-75
2022/12/09 13:01:01;;;;;;;27.00;9.02;;;;;;;;;;10491391;28;20458;-75
2022/12/09 13:06:13;;;;;;;23.17;6.32;;;;;;;;;;10492694;28;20047;-76
2022/12/09 13:11:19;;;;;;;17.98;7.60;;;;;;;;;;10494801;28;20501;-75
2022/12/09 13:16:26;;;;;;;24.08;7.28;;;;;;;;;;10507404;28;20040;-76
2022/12/09 13:21:29;;;;;;;29.00;10.30;;;;;;;;;;10509790;28;20058;-76
2022/12/09 13:26:43;;;;;;;30.70;9.93;;;;;;;;;;10502446;28;20063;-75
2022/12/09 13:31:51;;;;;;;37.20;12.63;;;;;;;;;;10511478;28;20456;-76
2022/12/09 13:36:54;;;;;;;34.70;12.43;;;;;;;;;;10494466;28;20106;-75
2022/12/09 13:47:25;;;;;;;29.50;11.15;;;;;;;;;;10506109;28;20037;-75
2022/12/09 13:52:46;;;;;;;34.53;11.53;;;;;;;;;;10511073;28;20439;-75
2022/12/09 13:57:53;;;;;;;29.02;9.68;;;;;;;;;;10511405;28;20466;-75
2022/12/09 14:02:58;;;;;;;32.20;11.60;;;;;;;;;;10506152;28;20042;-75
2022/12/09 14:08:03;;;;;;;34.83;11.53;;;;;;;;;;10505333;28;20047;-75
2022/12/09 14:13:23;;;;;;;36.17;11.57;;;;;;;;;;10508336;28;20046;-75
2022/12/09 14:18:28;;;;;;;34.00;11.77;;;;;;;;;;10502226;28;20061;-75
2022/12/09 14:23:33;;;;;;;34.38;11.60;;;;;;;;;;10485956;28;20513;-75
2022/12/09 14:28:59;;;;;;;31.83;10.77;;;;;;;;;;10510668;28;20064;-75
2022/12/09 14:34:16;;;;;;;29.92;11.18;;;;;;;;;;10516751;28;20040;-75
2022/12/09 14:39:23;;;;;;;28.00;9.57;;;;;;;;;;10511406;28;20040;-75
2022/12/09 14:44:30;;;;;;;34.43;11.03;;;;;;;;;;10515829;28;20127;-76
2022/12/09 14:49:36;;;;;;;27.33;9.05;;;;;;;;;;10513742;28;20061;-77
2022/12/09 14:54:52;;;;;;;21.00;6.90;;;;;;;;;;10527140;28;20513;-76
2022/12/09 14:59:56;;;;;;;24.83;8.53;;;;;;;;;;10493830;28;20063;-76
2022/12/09 15:05:01;;;;;;;25.73;8.43;;;;;;;;;;10518115;28;20036;-75
2022/12/09 15:10:17;;;;;;;25.20;8.37;;;;;;;;;;10497118;28;20066;-76
2022/12/09 15:15:21;;;;;;;29.73;8.90;;;;;;;;;;10525237;28;20432;-76
2022/12/09 15:20:27;;;;;;;26.77;9.93;;;;;;;;;;10520244;28;20067;-75
2022/12/09 15:25:31;;;;;;;35.03;11.57;;;;;;;;;;10514800;28;20395;-76
2022/12/09 15:30:35;;;;;;;36.05;10.70;;;;;;;;;;10493479;28;20028;-76
2022/12/09 15:35:40;;;;;;;37.83;11.52;;;;;;;;;;10523372;28;20602;-75
2022/12/09 15:42:05;;;;;;;31.73;10.30;;;;;;;;;;10509726;28;20036;-77
2022/12/09 15:46:09;;;;;;;29.33;9.53;;;;;;;;;;10500890;28;20444;-76
2022/12/09 15:51:16;;;;;;;24.33;9.30;;;;;;;;;;10524141;28;20043;-77
2022/12/09 15:56:24;;;;;;;22.10;7.20;;;;;;;;;;10516025;28;20046;-76
2022/12/09 16:01:26;;;;;;;;;;;;;;;;;;10502493;28;20478;-76
2022/12/09 16:06:33;;;;;;;23.23;8.73;;;;;;;;;;10522741;28;19924;-75
2022/12/09 16:11:50;;;;;;;27.13;8.67;;;;;;;;;;10510284;28;20036;-76
2022/12/09 16:16:55;;;;;;;32.97;9.80;;;;;;;;;;10511579;28;20040;-76
2022/12/09 16:21:58;;;;;;;;;;;;;;;;;;10490823;28;20032;-76
2022/12/09 16:27:07;;;;;;;25.33;8.57;;;;;;;;;;10514024;28;20004;-75
2022/12/09 16:32:19;;;;;;;33.70;10.50;;;;;;;;;;10488949;28;20370;-75
2022/12/09 16:37:22;;;;;;;36.37;12.33;;;;;;;;;;10492771;28;20170;-77
2022/12/09 16:42:30;;;;;;;28.38;10.88;;;;;;;;;;10512721;28;20076;-76
2022/12/09 16:47:39;;;;;;;38.47;12.40;;;;;;;;;;10509669;28;20036;-76
2022/12/09 16:52:43;;;;;;;40.20;13.23;;;;;;;;;;10507134;28;20384;-76
2022/12/09 16:57:48;;;;;;;37.03;12.53;;;;;;;;;;10496242;28;20049;-76
2022/12/09 17:02:53;;;;;;;40.80;13.13;;;;;;;;;;10509262;28;20594;-75
2022/12/09 17:07:56;;;;;;;40.75;13.77;;;;;;;;;;10509839;28;20048;-76
2022/12/09 17:13:01;;;;;;;46.30;12.93;;;;;;;;;;10505511;28;20037;-75
2022/12/09 17:18:04;;;;;;;42.97;13.70;;;;;;;;;;10515576;28;20037;-76
2022/12/09 17:23:07;;;;;;;41.87;14.17;;;;;;;;;;10508807;28;20482;-76
2022/12/09 17:28:11;;;;;;;39.70;12.97;;;;;;;;;;10509118;28;20058;-76
2022/12/09 17:33:14;;;;;;;39.80;13.67;;;;;;;;;;10487202;28;20040;-78
2022/12/09 17:38:18;;;;;;;43.73;14.07;;;;;;;;;;10492037;28;20047;-76
2022/12/09 17:43:23;;;;;;;38.15;12.73;;;;;;;;;;10486997;28;20119;-77
2022/12/09 17:48:27;;;;;;;39.55;13.77;;;;;;;;;;10508613;28;20068;-76
2022/12/09 17:53:30;;;;;;;39.67;13.45;;;;;;;;;;10514845;28;20044;-76
2022/12/09 17:58:34;;;;;;;42.77;14.40;;;;;;;;;;10492698;28;20051;-74
2022/12/09 18:03:38;;;;;;;41.50;14.30;;;;;;;;;;10507363;28;20064;-75
2022/12/09 18:08:58;;;;;;;42.73;14.20;;;;;;;;;;10508483;28;20521;-76
2022/12/09 18:14:02;;;;;;;35.00;11.50;;;;;;;;;;10511130;28;20052;-76
2022/12/09 18:19:05;;;;;;;;;;;;;;;;;;10513490;28;20123;-76
2022/12/09 18:24:10;;;;;;;46.83;14.20;;;;;;;;;;10512459;28;19920;-75
2022/12/09 18:29:14;;;;;;;38.97;12.83;;;;;;;;;;10492329;28;20064;-77
2022/12/09 18:34:48;;;;;;;40.10;12.80;;;;;;;;;;10509175;28;20121;-76
2022/12/09 18:40:03;;;;;;;40.63;13.07;;;;;;;;;;10508860;28;20048;-77
2022/12/09 18:45:11;;;;;;;42.45;14.25;;;;;;;;;;10485439;28;20032;-76
2022/12/09 18:50:15;;;;;;;38.60;13.30;;;;;;;;;;10509785;28;20603;-77
2022/12/09 19:01:12;;;;;;;46.05;15.15;;;;;;;;;;10512539;28;20077;-76
2022/12/09 19:06:18;;;;;;;44.27;14.80;;;;;;;;;;10508407;28;20033;-76
2022/12/09 19:11:25;;;;;;;40.95;13.63;;;;;;;;;;10492475;28;20040;-77
2022/12/09 19:16:30;;;;;;;41.90;14.23;;;;;;;;;;10511720;28;20478;-75
2022/12/09 19:21:33;;;;;;;42.87;13.23;;;;;;;;;;10507922;28;20048;-75
2022/12/09 19:26:37;;;;;;;46.22;12.73;;;;;;;;;;10516431;28;20409;-75
2022/12/09 19:31:42;;;;;;;56.67;15.27;;;;;;;;;;10497669;28;20040;-75
2022/12/09 19:36:46;;;;;;;44.30;14.18;;;;;;;;;;10520416;28;20166;-76
2022/12/09 19:41:51;;;;;;;48.15;13.27;;;;;;;;;;10510827;28;20319;-75
2022/12/09 19:46:56;;;;;;;40.90;12.75;;;;;;;;;;10506052;28;20059;-74
2022/12/09 19:51:59;;;;;;;39.83;13.03;;;;;;;;;;10503589;28;20040;-77
2022/12/09 19:57:02;;;;;;;35.28;11.15;;;;;;;;;;10522702;28;20028;-76
2022/12/09 20:02:10;;;;;;;40.97;12.57;;;;;;;;;;10497925;28;20044;-76
2022/12/09 20:07:18;;;;;;;40.33;12.90;;;;;;;;;;10510053;28;20047;-75
2022/12/09 20:12:22;;;;;;;37.10;11.30;;;;;;;;;;10499148;28;20481;-75
2022/12/09 20:17:29;;;;;;;32.50;10.17;;;;;;;;;;10494914;28;20036;-76
2022/12/09 20:22:36;;;;;;;35.75;12.00;;;;;;;;;;10514427;28;20524;-75
2022/12/09 20:27:43;;;;;;;45.08;14.48;;;;;;;;;;10493868;28;20527;-74
2022/12/09 20:32:49;;;;;;;41.15;13.10;;;;;;;;;;10476872;28;20101;-75
2022/12/09 20:37:53;;;;;;;49.93;14.80;;;;;;;;;;10506184;28;20040;-75
2022/12/09 20:42:56;;;;;;;30.65;9.45;;;;;;;;;;10517709;28;20093;-74
2022/12/09 20:48:01;;;;;;;35.72;10.80;;;;;;;;;;10489359;28;20445;-74
2022/12/09 20:53:04;;;;;;;43.25;12.73;;;;;;;;;;10514647;28;20040;-75
2022/12/09 20:58:07;;;;;;;40.25;12.82;;;;;;;;;;10523726;28;20040;-75
2022/12/09 21:03:12;;;;;;;31.38;10.15;;;;;;;;;;10511772;28;20420;-75
2022/12/09 21:08:17;;;;;;;33.42;11.25;;;;;;;;;;10510471;28;20063;-77
2022/12/09 21:13:20;;;;;;;41.80;13.50;;;;;;;;;;10523417;28;20494;-75
2022/12/09 21:18:24;;;;;;;;;;;;;;;;;;10486764;28;20044;-75
2022/12/09 21:23:28;;;;;;;40.77;12.73;;;;;;;;;;10511760;28;20687;-76
2022/12/09 21:28:37;;;;;;;42.95;13.52;;;;;;;;;;10514321;28;20039;-76
2022/12/09 21:33:41;;;;;;;43.23;15.13;;;;;;;;;;10494631;28;20039;-75
2022/12/09 21:38:46;;;;;;;41.17;12.80;;;;;;;;;;10487566;28;20529;-74
2022/12/09 21:43:49;;;;;;;46.67;13.23;;;;;;;;;;10507704;28;20082;-75
2022/12/09 21:48:53;;;;;;;70.43;20.95;;;;;;;;;;10513675;28;20058;-75
2022/12/09 21:54:05;;;;;;;43.60;13.90;;;;;;;;;;10496787;28;20040;-74
2022/12/09 21:59:09;;;;;;;47.45;15.43;;;;;;;;;;10527255;28;20039;-74
2022/12/09 22:04:14;;;;;;;35.40;10.27;;;;;;;;;;10514817;28;20039;-75
2022/12/09 22:14:37;;;;;;;33.85;11.05;;;;;;;;;;10508440;28;20041;-75
2022/12/09 22:19:40;;;;;;;36.30;11.30;;;;;;;;;;10484309;28;20059;-76
2022/12/09 22:24:45;;;;;;;38.65;12.60;;;;;;;;;;10514366;28;20105;-75
2022/12/09 22:29:48;;;;;;;37.03;12.00;;;;;;;;;;10506907;28;20382;-76
2022/12/09 22:34:51;;;;;;;45.20;12.70;;;;;;;;;;10497524;28;20036;-76
2022/12/09 22:39:55;;;;;;;58.92;18.67;;;;;;;;;;10507269;28;20062;-75
2022/12/09 22:44:58;;;;;;;;;;;;;;;;;;10512651;28;20047;-75
2022/12/09 22:50:01;;;;;;;30.60;10.20;;;;;;;;;;10509520;28;19920;-76
2022/12/09 22:55:05;;;;;;;;;;;;;;;;;;10508831;28;20024;-76
2022/12/09 23:00:11;;;;;;;37.60;10.77;;;;;;;;;;10508915;28;19939;-75
2022/12/09 23:05:14;;;;;;;33.50;9.83;;;;;;;;;;10497900;28;20056;-75
2022/12/09 23:10:17;;;;;;;40.17;11.80;;;;;;;;;;10501604;28;20044;-76
2022/12/09 23:15:22;;;;;;;40.37;9.37;;;;;;;;;;10500029;28;20059;-74
2022/12/09 23:20:34;;;;;;;37.05;11.10;;;;;;;;;;10515419;28;20116;-75
2022/12/09 23:25:37;;;;;;;38.00;11.20;;;;;;;;;;10515701;28;20046;-75
2022/12/09 23:30:41;;;;;;;40.13;11.75;;;;;;;;;;10495685;28;20134;-74
2022/12/09 23:35:44;;;;;;;;;;;;;;;;;;10515579;28;20044;-74
2022/12/09 23:40:50;;;;;;;45.97;12.17;;;;;;;;;;10520756;28;19921;-75
2022/12/09 23:45:55;;;;;;;35.55;10.52;;;;;;;;;;10519667;28;20142;-75
2022/12/09 23:50:58;;;;;;;37.65;10.15;;;;;;;;;;10527572;28;20617;-74
2022/12/09 23:56:01;;;;;;;35.90;10.50;;;;;;;;;;10521631;28;20067;-74
